sensor_id;sensor_type;location;lat;lon;timestamp;temperature;humidity
5419;DHT22;2732;52.092;11.556;2022-10-18T00:02:44;18.20;99.90
5419;DHT22;2732;52.092;11.556;2022-10-18T00:07:45;18.10;99.90
5419;DHT22;2732;52.092;11.556;2022-10-18T00:12:45;18.10;99.90
5419;DHT22;2732;52.092;11.556;2022-10-18T00:17:46;18.10;99.90
5419;DHT22;2732;52.092;11.556;2022-10-18T00:22:47;18.10;99.90
5419;DHT22;2732;52.092;11.556;2022-10-18T00:27:47;18.00;99.90
5419;DHT22;2732;52.092;11.556;2022-10-18T00:32:48;18.00;99.90
5419;DHT22;2732;52.092;11.556;2022-10-18T00:37:49;18.00;99.90
5419;DHT22;2732;52.092;11.556;2022-10-18T00:42:49;17.90;99.90
5419;DHT22;2732;52.092;11.556;2022-10-18T00:48:01;17.90;99.90
5419;DHT22;2732;52.092;11.556;2022-10-18T00:53:08;17.90;99.90
5419;DHT22;2732;52.092;11.556;2022-10-18T00:58:14;17.90;99.90
5419;DHT22;2732;52.092;11.556;2022-10-18T01:03:16;17.80;99.90
5419;DHT22;2732;52.092;11.556;2022-10-18T01:08:54;17.80;99.90
5419;DHT22;2732;52.092;11.556;2022-10-18T01:25:52;17.70;99.90
5419;DHT22;2732;52.092;11.556;2022-10-18T01:31:00;17.70;99.90
5419;DHT22;2732;52.092;11.556;2022-10-18T01:36:22;17.70;99.90
5419;DHT22;2732;52.092;11.556;2022-10-18T01:41:36;17.60;99.90
5419;DHT22;2732;52.092;11.556;2022-10-18T01:46:39;17.60;99.90
5419;DHT22;2732;52.092;11.556;2022-10-18T01:51:40;17.60;99.90
5419;DHT22;2732;52.092;11.556;2022-10-18T01:58:01;17.50;99.90
5419;DHT22;2732;52.092;11.556;2022-10-18T02:02:49;17.50;99.90
5419;DHT22;2732;52.092;11.556;2022-10-18T02:08:29;17.40;99.90
5419;DHT22;2732;52.092;11.556;2022-10-18T02:18:59;17.30;99.90
5419;DHT22;2732;52.092;11.556;2022-10-18T02:24:03;17.30;99.90
5419;DHT22;2732;52.092;11.556;2022-10-18T02:29:05;17.30;99.90
5419;DHT22;2732;52.092;11.556;2022-10-18T02:34:27;17.20;99.90
5419;DHT22;2732;52.092;11.556;2022-10-18T02:39:42;17.20;99.90
5419;DHT22;2732;52.092;11.556;2022-10-18T02:44:45;17.10;99.90
5419;DHT22;2732;52.092;11.556;2022-10-18T02:49:46;17.10;99.90
5419;DHT22;2732;52.092;11.556;2022-10-18T02:54:47;17.00;99.90
5419;DHT22;2732;52.092;11.556;2022-10-18T02:59:47;17.00;99.90
5419;DHT22;2732;52.092;11.556;2022-10-18T03:04:48;17.00;99.90
5419;DHT22;2732;52.092;11.556;2022-10-18T03:09:49;16.90;99.90
5419;DHT22;2732;52.092;11.556;2022-10-18T03:14:49;16.90;99.90
5419;DHT22;2732;52.092;11.556;2022-10-18T03:19:50;16.80;99.90
5419;DHT22;2732;52.092;11.556;2022-10-18T03:24:51;16.80;99.90
5419;DHT22;2732;52.092;11.556;2022-10-18T03:29:52;16.70;99.90
5419;DHT22;2732;52.092;11.556;2022-10-18T03:34:53;16.70;99.90
5419;DHT22;2732;52.092;11.556;2022-10-18T03:39:54;16.70;99.90
5419;DHT22;2732;52.092;11.556;2022-10-18T03:44:55;16.60;99.90
5419;DHT22;2732;52.092;11.556;2022-10-18T03:49:55;16.60;99.90
5419;DHT22;2732;52.092;11.556;2022-10-18T03:54:56;16.60;99.90
5419;DHT22;2732;52.092;11.556;2022-10-18T03:59:57;16.50;99.90
5419;DHT22;2732;52.092;11.556;2022-10-18T04:04:57;16.50;99.90
5419;DHT22;2732;52.092;11.556;2022-10-18T04:09:58;16.40;99.90
5419;DHT22;2732;52.092;11.556;2022-10-18T04:14:59;16.40;99.90
5419;DHT22;2732;52.092;11.556;2022-10-18T04:19:59;16.30;99.90
5419;DHT22;2732;52.092;11.556;2022-10-18T04:25:00;16.30;99.90
5419;DHT22;2732;52.092;11.556;2022-10-18T04:30:01;16.30;99.90
5419;DHT22;2732;52.092;11.556;2022-10-18T04:35:03;16.30;99.90
5419;DHT22;2732;52.092;11.556;2022-10-18T04:40:05;16.20;99.90
5419;DHT22;2732;52.092;11.556;2022-10-18T04:45:07;16.20;99.90
5419;DHT22;2732;52.092;11.556;2022-10-18T04:50:08;16.20;99.90
5419;DHT22;2732;52.092;11.556;2022-10-18T04:55:09;16.10;99.90
5419;DHT22;2732;52.092;11.556;2022-10-18T05:00:10;16.10;99.90
5419;DHT22;2732;52.092;11.556;2022-10-18T05:05:11;16.00;99.90
5419;DHT22;2732;52.092;11.556;2022-10-18T05:10:12;16.00;99.90
5419;DHT22;2732;52.092;11.556;2022-10-18T05:15:12;16.00;99.90
5419;DHT22;2732;52.092;11.556;2022-10-18T05:20:13;16.00;99.90
5419;DHT22;2732;52.092;11.556;2022-10-18T05:25:14;15.90;99.90
5419;DHT22;2732;52.092;11.556;2022-10-18T05:30:14;15.90;99.90
5419;DHT22;2732;52.092;11.556;2022-10-18T05:35:15;15.90;99.90
5419;DHT22;2732;52.092;11.556;2022-10-18T05:40:16;15.90;99.90
5419;DHT22;2732;52.092;11.556;2022-10-18T05:45:17;15.90;99.90
5419;DHT22;2732;52.092;11.556;2022-10-18T05:50:17;15.80;99.90
5419;DHT22;2732;52.092;11.556;2022-10-18T05:55:18;15.80;99.90
5419;DHT22;2732;52.092;11.556;2022-10-18T06:00:19;15.80;99.90
5419;DHT22;2732;52.092;11.556;2022-10-18T06:05:19;15.80;99.90
5419;DHT22;2732;52.092;11.556;2022-10-18T06:10:20;15.80;99.90
5419;DHT22;2732;52.092;11.556;2022-10-18T06:15:21;15.80;99.90
5419;DHT22;2732;52.092;11.556;2022-10-18T06:20:21;15.80;99.90
5419;DHT22;2732;52.092;11.556;2022-10-18T06:25:22;15.70;99.90
5419;DHT22;2732;52.092;11.556;2022-10-18T06:30:23;15.80;99.90
5419;DHT22;2732;52.092;11.556;2022-10-18T06:35:23;15.70;99.90
5419;DHT22;2732;52.092;11.556;2022-10-18T06:40:24;15.70;99.90
5419;DHT22;2732;52.092;11.556;2022-10-18T06:45:24;15.70;99.90
5419;DHT22;2732;52.092;11.556;2022-10-18T06:50:25;15.70;99.90
5419;DHT22;2732;52.092;11.556;2022-10-18T06:55:26;15.70;99.90
5419;DHT22;2732;52.092;11.556;2022-10-18T07:00:26;15.70;99.90
5419;DHT22;2732;52.092;11.556;2022-10-18T07:05:27;15.70;99.90
5419;DHT22;2732;52.092;11.556;2022-10-18T07:10:28;15.70;99.90
5419;DHT22;2732;52.092;11.556;2022-10-18T07:15:28;15.70;99.90
5419;DHT22;2732;52.092;11.556;2022-10-18T07:20:29;15.70;99.90
5419;DHT22;2732;52.092;11.556;2022-10-18T07:25:30;15.70;99.90
5419;DHT22;2732;52.092;11.556;2022-10-18T07:30:31;15.70;99.90
5419;DHT22;2732;52.092;11.556;2022-10-18T07:35:31;15.70;99.90
5419;DHT22;2732;52.092;11.556;2022-10-18T07:40:32;15.70;99.90
5419;DHT22;2732;52.092;11.556;2022-10-18T07:45:33;15.70;99.90
5419;DHT22;2732;52.092;11.556;2022-10-18T07:50:34;15.70;99.90
5419;DHT22;2732;52.092;11.556;2022-10-18T07:55:35;15.80;99.90
5419;DHT22;2732;52.092;11.556;2022-10-18T08:00:36;15.80;99.90
5419;DHT22;2732;52.092;11.556;2022-10-18T08:05:38;15.80;99.90
5419;DHT22;2732;52.092;11.556;2022-10-18T08:10:39;15.80;99.90
5419;DHT22;2732;52.092;11.556;2022-10-18T08:15:40;15.80;99.90
5419;DHT22;2732;52.092;11.556;2022-10-18T08:20:44;15.80;99.90
5419;DHT22;2732;52.092;11.556;2022-10-18T08:25:45;15.80;99.90
5419;DHT22;2732;52.092;11.556;2022-10-18T08:30:46;15.80;99.90
5419;DHT22;2732;52.092;11.556;2022-10-18T08:35:57;15.80;99.90
5419;DHT22;2732;52.092;11.556;2022-10-18T08:46:47;15.90;99.90
5419;DHT22;2732;52.092;11.556;2022-10-18T08:51:50;16.00;99.90
5419;DHT22;2732;52.092;11.556;2022-10-18T08:57:00;16.00;99.90
5419;DHT22;2732;52.092;11.556;2022-10-18T09:19:11;16.20;99.90
5419;DHT22;2732;52.092;11.556;2022-10-18T09:35:36;16.40;99.90
5419;DHT22;2732;52.092;11.556;2022-10-18T09:46:37;16.80;99.90
5419;DHT22;2732;52.092;11.556;2022-10-18T09:51:41;17.00;99.90
5419;DHT22;2732;52.092;11.556;2022-10-18T10:02:16;16.90;99.90
5419;DHT22;2732;52.092;11.556;2022-10-18T10:07:27;16.90;99.90
5419;DHT22;2732;52.092;11.556;2022-10-18T10:12:38;17.00;99.90
5419;DHT22;2732;52.092;11.556;2022-10-18T10:17:39;17.10;99.90
5419;DHT22;2732;52.092;11.556;2022-10-18T10:22:41;17.20;99.90
5419;DHT22;2732;52.092;11.556;2022-10-18T10:27:45;17.30;99.90
5419;DHT22;2732;52.092;11.556;2022-10-18T10:32:49;17.40;99.90
5419;DHT22;2732;52.092;11.556;2022-10-18T10:37:53;17.50;99.90
5419;DHT22;2732;52.092;11.556;2022-10-18T10:43:16;17.70;99.90
5419;DHT22;2732;52.092;11.556;2022-10-18T10:48:19;17.90;99.90
5419;DHT22;2732;52.092;11.556;2022-10-18T10:58:38;18.00;99.90
5419;DHT22;2732;52.092;11.556;2022-10-18T11:03:45;18.00;99.90
5419;DHT22;2732;52.092;11.556;2022-10-18T11:08:49;18.00;99.90
5419;DHT22;2732;52.092;11.556;2022-10-18T11:19:41;18.00;99.90
5419;DHT22;2732;52.092;11.556;2022-10-18T11:24:49;18.00;99.90
5419;DHT22;2732;52.092;11.556;2022-10-18T11:30:02;18.00;99.90
5419;DHT22;2732;52.092;11.556;2022-10-18T11:35:28;18.00;99.90
5419;DHT22;2732;52.092;11.556;2022-10-18T11:41:26;18.00;99.90
5419;DHT22;2732;52.092;11.556;2022-10-18T11:52:12;18.20;99.90
5419;DHT22;2732;52.092;11.556;2022-10-18T11:57:53;18.30;99.90
5419;DHT22;2732;52.092;11.556;2022-10-18T12:08:32;18.80;99.90
5419;DHT22;2732;52.092;11.556;2022-10-18T12:13:50;19.10;99.90
5419;DHT22;2732;52.092;11.556;2022-10-18T12:18:59;19.10;99.90
5419;DHT22;2732;52.092;11.556;2022-10-18T12:24:07;19.30;99.90
5419;DHT22;2732;52.092;11.556;2022-10-18T12:29:21;19.30;99.90
5419;DHT22;2732;52.092;11.556;2022-10-18T12:34:48;19.30;99.90
5419;DHT22;2732;52.092;11.556;2022-10-18T12:39:56;19.30;99.90
5419;DHT22;2732;52.092;11.556;2022-10-18T12:50:38;19.20;99.90
5419;DHT22;2732;52.092;11.556;2022-10-18T12:55:45;19.30;99.90
5419;DHT22;2732;52.092;11.556;2022-10-18T13:28:27;19.50;99.90
5419;DHT22;2732;52.092;11.556;2022-10-18T13:33:34;19.40;99.90
5419;DHT22;2732;52.092;11.556;2022-10-18T13:38:41;19.50;99.90
5419;DHT22;2732;52.092;11.556;2022-10-18T14:11:23;20.10;99.90
5419;DHT22;2732;52.092;11.556;2022-10-18T14:22:19;19.70;99.90
5419;DHT22;2732;52.092;11.556;2022-10-18T14:27:31;19.40;99.90
5419;DHT22;2732;52.092;11.556;2022-10-18T14:32:32;19.20;99.90
5419;DHT22;2732;52.092;11.556;2022-10-18T14:37:34;19.20;99.90
5419;DHT22;2732;52.092;11.556;2022-10-18T14:42:35;19.00;99.90
5419;DHT22;2732;52.092;11.556;2022-10-18T14:47:36;19.00;99.90
5419;DHT22;2732;52.092;11.556;2022-10-18T14:52:37;19.00;99.90
5419;DHT22;2732;52.092;11.556;2022-10-18T14:57:38;19.00;99.90
5419;DHT22;2732;52.092;11.556;2022-10-18T15:02:39;19.00;99.90
5419;DHT22;2732;52.092;11.556;2022-10-18T15:07:39;19.00;99.90
5419;DHT22;2732;52.092;11.556;2022-10-18T15:12:41;18.90;99.90
5419;DHT22;2732;52.092;11.556;2022-10-18T15:17:43;18.70;99.90
5419;DHT22;2732;52.092;11.556;2022-10-18T15:22:44;18.70;99.90
5419;DHT22;2732;52.092;11.556;2022-10-18T15:27:53;18.60;99.90
5419;DHT22;2732;52.092;11.556;2022-10-18T15:32:57;18.50;99.90
5419;DHT22;2732;52.092;11.556;2022-10-18T15:38:12;18.30;99.90
5419;DHT22;2732;52.092;11.556;2022-10-18T15:43:33;18.10;99.90
5419;DHT22;2732;52.092;11.556;2022-10-18T15:48:37;18.00;99.90
5419;DHT22;2732;52.092;11.556;2022-10-18T15:53:51;17.80;99.90
5419;DHT22;2732;52.092;11.556;2022-10-18T15:58:54;17.60;99.90
5419;DHT22;2732;52.092;11.556;2022-10-18T16:03:59;17.40;99.90
5419;DHT22;2732;52.092;11.556;2022-10-18T16:09:00;17.30;99.90
5419;DHT22;2732;52.092;11.556;2022-10-18T16:14:01;17.10;99.90
5419;DHT22;2732;52.092;11.556;2022-10-18T16:19:02;16.90;99.90
5419;DHT22;2732;52.092;11.556;2022-10-18T16:24:03;16.80;99.90
5419;DHT22;2732;52.092;11.556;2022-10-18T16:29:04;16.60;99.90
5419;DHT22;2732;52.092;11.556;2022-10-18T16:34:05;16.40;99.90
5419;DHT22;2732;52.092;11.556;2022-10-18T16:39:14;16.30;99.90
5419;DHT22;2732;52.092;11.556;2022-10-18T16:44:17;16.10;99.90
5419;DHT22;2732;52.092;11.556;2022-10-18T16:49:21;15.90;99.90
5419;DHT22;2732;52.092;11.556;2022-10-18T16:54:24;15.80;99.90
5419;DHT22;2732;52.092;11.556;2022-10-18T16:59:29;15.60;99.90
5419;DHT22;2732;52.092;11.556;2022-10-18T17:04:30;15.50;99.90
5419;DHT22;2732;52.092;11.556;2022-10-18T17:09:31;15.40;99.90
5419;DHT22;2732;52.092;11.556;2022-10-18T17:14:34;15.20;99.90
5419;DHT22;2732;52.092;11.556;2022-10-18T17:19:36;15.10;99.90
5419;DHT22;2732;52.092;11.556;2022-10-18T17:24:36;14.90;99.90
5419;DHT22;2732;52.092;11.556;2022-10-18T17:29:37;14.80;99.90
5419;DHT22;2732;52.092;11.556;2022-10-18T17:34:40;14.60;99.90
5419;DHT22;2732;52.092;11.556;2022-10-18T17:39:41;14.50;99.90
5419;DHT22;2732;52.092;11.556;2022-10-18T17:44:41;14.40;99.90
5419;DHT22;2732;52.092;11.556;2022-10-18T17:49:43;14.20;99.90
5419;DHT22;2732;52.092;11.556;2022-10-18T17:54:44;14.10;99.90
5419;DHT22;2732;52.092;11.556;2022-10-18T17:59:46;13.90;99.90
5419;DHT22;2732;52.092;11.556;2022-10-18T18:04:48;13.80;99.90
5419;DHT22;2732;52.092;11.556;2022-10-18T18:09:48;13.70;99.90
5419;DHT22;2732;52.092;11.556;2022-10-18T18:14:49;13.60;99.90
5419;DHT22;2732;52.092;11.556;2022-10-18T18:19:49;13.50;99.90
5419;DHT22;2732;52.092;11.556;2022-10-18T18:24:50;13.40;99.90
5419;DHT22;2732;52.092;11.556;2022-10-18T18:29:51;13.40;99.90
5419;DHT22;2732;52.092;11.556;2022-10-18T18:34:51;13.30;99.90
5419;DHT22;2732;52.092;11.556;2022-10-18T18:39:52;13.20;99.90
5419;DHT22;2732;52.092;11.556;2022-10-18T18:44:53;13.10;99.90
5419;DHT22;2732;52.092;11.556;2022-10-18T18:49:53;13.10;99.90
5419;DHT22;2732;52.092;11.556;2022-10-18T18:54:54;13.00;99.90
5419;DHT22;2732;52.092;11.556;2022-10-18T18:59:55;13.00;99.90
5419;DHT22;2732;52.092;11.556;2022-10-18T19:04:55;12.90;99.90
5419;DHT22;2732;52.092;11.556;2022-10-18T19:09:56;12.90;99.90
5419;DHT22;2732;52.092;11.556;2022-10-18T19:14:56;12.90;99.90
5419;DHT22;2732;52.092;11.556;2022-10-18T19:19:57;12.90;99.90
5419;DHT22;2732;52.092;11.556;2022-10-18T19:25:00;12.80;99.90
5419;DHT22;2732;52.092;11.556;2022-10-18T19:30:01;12.80;99.90
5419;DHT22;2732;52.092;11.556;2022-10-18T19:35:01;12.70;99.90
5419;DHT22;2732;52.092;11.556;2022-10-18T19:40:04;12.70;99.90
5419;DHT22;2732;52.092;11.556;2022-10-18T19:45:05;12.60;99.90
5419;DHT22;2732;52.092;11.556;2022-10-18T19:50:07;12.60;99.90
5419;DHT22;2732;52.092;11.556;2022-10-18T19:55:07;12.50;99.90
5419;DHT22;2732;52.092;11.556;2022-10-18T20:00:09;12.40;99.90
5419;DHT22;2732;52.092;11.556;2022-10-18T20:05:10;12.40;99.90
5419;DHT22;2732;52.092;11.556;2022-10-18T20:10:10;12.40;99.90
5419;DHT22;2732;52.092;11.556;2022-10-18T20:15:11;12.30;99.90
5419;DHT22;2732;52.092;11.556;2022-10-18T20:20:12;12.20;99.90
5419;DHT22;2732;52.092;11.556;2022-10-18T20:25:13;12.10;99.90
5419;DHT22;2732;52.092;11.556;2022-10-18T20:30:13;12.10;99.90
5419;DHT22;2732;52.092;11.556;2022-10-18T20:35:14;12.00;99.90
5419;DHT22;2732;52.092;11.556;2022-10-18T20:40:15;12.00;99.90
5419;DHT22;2732;52.092;11.556;2022-10-18T20:45:16;12.00;99.90
5419;DHT22;2732;52.092;11.556;2022-10-18T20:50:17;11.90;99.90
5419;DHT22;2732;52.092;11.556;2022-10-18T20:55:18;11.90;99.90
5419;DHT22;2732;52.092;11.556;2022-10-18T21:00:19;11.80;99.90
5419;DHT22;2732;52.092;11.556;2022-10-18T21:05:20;11.80;99.90
5419;DHT22;2732;52.092;11.556;2022-10-18T21:10:20;11.70;99.90
5419;DHT22;2732;52.092;11.556;2022-10-18T21:15:21;11.60;99.90
5419;DHT22;2732;52.092;11.556;2022-10-18T21:20:22;11.60;99.90
5419;DHT22;2732;52.092;11.556;2022-10-18T21:25:22;11.50;99.90
5419;DHT22;2732;52.092;11.556;2022-10-18T21:30:23;11.50;99.90
5419;DHT22;2732;52.092;11.556;2022-10-18T21:35:23;11.40;99.90
5419;DHT22;2732;52.092;11.556;2022-10-18T21:40:24;11.40;99.90
5419;DHT22;2732;52.092;11.556;2022-10-18T21:45:25;11.30;99.90
5419;DHT22;2732;52.092;11.556;2022-10-18T21:50:25;11.30;99.90
5419;DHT22;2732;52.092;11.556;2022-10-18T21:55:26;11.30;99.90
5419;DHT22;2732;52.092;11.556;2022-10-18T22:00:27;11.20;99.90
5419;DHT22;2732;52.092;11.556;2022-10-18T22:05:27;11.20;99.90
5419;DHT22;2732;52.092;11.556;2022-10-18T22:10:28;11.20;99.90
5419;DHT22;2732;52.092;11.556;2022-10-18T22:15:29;11.10;99.90
5419;DHT22;2732;52.092;11.556;2022-10-18T22:20:29;11.10;99.90
5419;DHT22;2732;52.092;11.556;2022-10-18T22:25:34;11.00;99.90
5419;DHT22;2732;52.092;11.556;2022-10-18T22:30:35;11.00;99.90
5419;DHT22;2732;52.092;11.556;2022-10-18T22:35:37;11.00;99.90
5419;DHT22;2732;52.092;11.556;2022-10-18T22:40:37;11.00;99.90
5419;DHT22;2732;52.092;11.556;2022-10-18T22:45:39;10.90;99.90
5419;DHT22;2732;52.092;11.556;2022-10-18T22:50:40;10.90;99.90
5419;DHT22;2732;52.092;11.556;2022-10-18T22:55:40;10.90;99.90
5419;DHT22;2732;52.092;11.556;2022-10-18T23:00:41;10.80;99.90
5419;DHT22;2732;52.092;11.556;2022-10-18T23:05:44;10.80;99.90
5419;DHT22;2732;52.092;11.556;2022-10-18T23:10:45;10.80;99.90
5419;DHT22;2732;52.092;11.556;2022-10-18T23:15:45;10.70;99.90
5419;DHT22;2732;52.092;11.556;2022-10-18T23:20:46;10.70;99.90
5419;DHT22;2732;52.092;11.556;2022-10-18T23:25:47;10.70;99.90
5419;DHT22;2732;52.092;11.556;2022-10-18T23:30:47;10.60;99.90
5419;DHT22;2732;52.092;11.556;2022-10-18T23:35:48;10.60;99.90
5419;DHT22;2732;52.092;11.556;2022-10-18T23:40:49;10.60;99.90
5419;DHT22;2732;52.092;11.556;2022-10-18T23:45:49;10.50;99.90
5419;DHT22;2732;52.092;11.556;2022-10-18T23:50:50;10.50;99.90
5419;DHT22;2732;52.092;11.556;2022-10-18T23:55:57;10.50;99.90
